Terminal Aerodrome Forecast
Issued by NWS Mt. Holly, NJ

Home | Current Version | Previous Version | Text Only | Print | Product List | Glossary On
Versions: 1 2 3 4 5 6 7 8 9 10 11 12 13 14 15 16 17 18 19 20 21 22 23 24 25 26
210
FTUS41 KPHI 272141 CCA
TAFACY
TAF COR
KACY 272141Z 2721/2818 15010KT P6SM BKN035
     FM280400 12005KT P6SM OVC015
     FM280600 VRB05KT 5SM BR OVC007
     FM280800 VRB04KT 1SM BR OVC003
     FM281200 VRB05KT 1SM -SHRA BR OVC007
     FM281600 VRB05KT 5SM BR OVC010=

USA.gov is the U.S. government's official web portal to all federal, state and local government web resources and services.